createdAt,value
2018-01-02T00:01:49.378Z,5.40
2018-01-02T00:04:16.928Z,5.47
2018-01-02T00:06:44.426Z,5.47
2018-01-02T00:09:12.403Z,5.51
2018-01-02T00:11:39.890Z,5.54
2018-01-02T00:14:07.376Z,5.53
2018-01-02T00:16:35.009Z,5.49
2018-01-02T00:19:02.509Z,5.51
2018-01-02T00:21:30.037Z,5.58
2018-01-02T00:23:57.564Z,5.59
2018-01-02T00:26:25.236Z,5.62
2018-01-02T00:28:52.724Z,5.62
2018-01-02T00:31:20.226Z,5.62
2018-01-02T00:33:47.718Z,5.56
2018-01-02T00:36:15.220Z,5.53
2018-01-02T00:38:43.001Z,5.53
2018-01-02T00:41:10.542Z,5.49
2018-01-02T00:43:38.056Z,5.50
2018-01-02T00:46:05.550Z,5.50
2018-01-02T00:48:33.080Z,5.46
2018-01-02T00:51:00.647Z,5.49
2018-01-02T00:53:28.408Z,5.50
2018-01-02T00:55:55.891Z,5.52
2018-01-02T00:58:23.372Z,5.58
2018-01-02T01:00:50.851Z,5.58
2018-01-02T01:03:18.345Z,5.54
2018-01-02T01:05:45.843Z,5.51
2018-01-02T01:08:13.348Z,5.49
2018-01-02T01:10:40.866Z,5.51
2018-01-02T01:13:08.344Z,5.53
2018-01-02T01:15:35.845Z,5.54
2018-01-02T01:18:03.616Z,5.61
2018-01-02T01:20:31.133Z,5.58
2018-01-02T01:22:58.631Z,5.44
2018-01-02T01:25:26.135Z,5.48
2018-01-02T01:27:54.029Z,5.52
2018-01-02T01:30:21.548Z,5.43
2018-01-02T01:32:49.062Z,5.42
2018-01-02T01:35:16.560Z,5.51
2018-01-02T01:37:44.226Z,5.52
2018-01-02T01:40:11.712Z,5.57
2018-01-02T01:42:39.188Z,5.53
2018-01-02T01:45:06.704Z,5.57
2018-01-02T01:47:34.249Z,5.57
2018-01-02T01:50:01.817Z,5.60
2018-01-02T01:52:29.350Z,5.46
2018-01-02T01:54:57.016Z,5.54
2018-01-02T01:57:24.778Z,5.52
2018-01-02T01:59:52.264Z,5.49
2018-01-02T02:02:19.744Z,5.43
2018-01-02T02:04:47.240Z,5.27
2018-01-02T02:07:14.740Z,5.25
2018-01-02T02:09:42.236Z,5.25
2018-01-02T02:12:09.719Z,5.24
2018-01-02T02:14:37.276Z,5.21
2018-01-02T02:17:04.780Z,4.92
2018-01-02T02:19:32.317Z,4.93
2018-01-02T02:21:59.799Z,4.99
2018-01-02T02:24:27.317Z,4.88
2018-01-02T02:26:54.841Z,4.92
2018-01-02T02:29:22.346Z,4.91
2018-01-02T02:31:50.109Z,4.78
2018-01-02T02:34:17.604Z,4.84
2018-01-02T02:36:45.103Z,4.83
2018-01-02T02:39:12.613Z,4.76
2018-01-02T02:41:40.088Z,4.71
2018-01-02T02:44:07.614Z,4.71
2018-01-02T02:46:35.107Z,4.72
2018-01-02T02:49:02.626Z,4.77
2018-01-02T02:51:30.120Z,4.60
2018-01-02T02:53:57.614Z,4.71
2018-01-02T02:56:25.146Z,4.71
2018-01-02T02:58:52.644Z,4.68
2018-01-02T03:01:20.204Z,4.63
2018-01-02T03:03:47.899Z,4.57
2018-01-02T03:06:15.416Z,4.60
2018-01-02T03:08:43.207Z,4.67
2018-01-02T03:11:10.701Z,4.58
2018-01-02T03:13:38.227Z,4.54
2018-01-02T03:16:05.715Z,4.64
2018-01-02T03:18:33.387Z,4.58
2018-01-02T03:21:00.893Z,4.61
2018-01-02T03:23:28.368Z,4.60
2018-01-02T03:25:56.068Z,4.65
2018-01-02T03:28:23.564Z,4.66
2018-01-02T03:30:51.052Z,4.56
2018-01-02T03:33:18.528Z,4.54
2018-01-02T03:35:46.020Z,4.55
2018-01-02T03:38:13.600Z,4.52
2018-01-02T03:40:41.106Z,4.54
2018-01-02T03:43:08.598Z,4.57
2018-01-02T03:45:36.294Z,4.53
2018-01-02T03:48:03.809Z,4.47
2018-01-02T03:50:31.310Z,4.52
2018-01-02T03:52:59.016Z,4.52
2018-01-02T03:55:26.573Z,4.57
2018-01-02T03:57:54.084Z,4.58
2018-01-02T04:00:21.577Z,4.58
2018-01-02T04:02:49.069Z,4.56
2018-01-02T04:05:16.567Z,4.60
2018-01-02T04:07:44.075Z,4.53
2018-01-02T04:10:11.807Z,4.47
2018-01-02T04:12:39.332Z,4.46
2018-01-02T04:15:06.825Z,4.54
2018-01-02T04:17:34.468Z,4.53
2018-01-02T04:20:02.008Z,4.56
2018-01-02T04:22:29.512Z,4.50
2018-01-02T04:24:57.231Z,4.53
2018-01-02T04:27:24.733Z,4.56
2018-01-02T04:29:52.207Z,4.54
2018-01-02T04:32:19.705Z,4.53
2018-01-02T04:34:47.231Z,4.62
2018-01-02T04:37:14.742Z,4.54
2018-01-02T04:39:42.227Z,4.56
2018-01-02T04:42:09.964Z,4.68
2018-01-02T04:44:37.441Z,4.64
2018-01-02T04:47:04.950Z,4.61
2018-01-02T04:49:32.433Z,4.69
2018-01-02T04:51:59.922Z,4.70
2018-01-02T04:54:27.507Z,4.70
2018-01-02T04:56:55.003Z,4.75
2018-01-02T04:59:22.568Z,4.74
2018-01-02T05:01:50.063Z,4.74
2018-01-02T05:04:17.583Z,4.75
2018-01-02T05:06:45.220Z,4.78
2018-01-02T05:09:12.729Z,4.86
2018-01-02T05:11:41.478Z,4.85
2018-01-02T05:14:08.991Z,4.88
2018-01-02T05:16:36.481Z,4.90
2018-01-02T05:19:04.003Z,4.97
2018-01-02T05:21:31.518Z,5.00
2018-01-02T05:23:59.015Z,5.03
2018-01-02T05:26:26.523Z,5.06
2018-01-02T05:28:54.036Z,5.10
2018-01-02T05:31:21.559Z,5.11
2018-01-02T05:33:49.103Z,5.14
2018-01-02T05:36:16.614Z,5.17
2018-01-02T05:38:44.133Z,5.18
2018-01-02T05:41:11.642Z,5.22
2018-01-02T05:43:39.179Z,5.29
2018-01-02T05:46:06.691Z,5.27
2018-01-02T05:48:34.198Z,5.30
2018-01-02T05:51:01.700Z,5.34
2018-01-02T05:53:29.442Z,5.35
2018-01-02T05:55:56.946Z,5.38
2018-01-02T05:58:24.440Z,5.40
2018-01-02T06:00:51.955Z,5.39
2018-01-02T06:03:19.545Z,5.43
2018-01-02T06:05:47.047Z,5.48
2018-01-02T06:08:14.720Z,5.47
2018-01-02T06:10:42.208Z,5.50
2018-01-02T06:13:10.708Z,5.51
2018-01-02T06:15:38.188Z,5.54
2018-01-02T06:18:05.728Z,5.56
2018-01-02T06:20:33.254Z,5.56
2018-01-02T06:23:00.765Z,5.56
2018-01-02T06:25:28.272Z,5.54
2018-01-02T06:27:55.786Z,5.58
2018-01-02T06:30:23.298Z,5.57
2018-01-02T06:32:50.823Z,5.61
2018-01-02T06:35:18.306Z,5.58
2018-01-02T06:37:46.046Z,5.59
2018-01-02T06:40:13.546Z,5.64
2018-01-02T06:42:41.092Z,5.65
2018-01-02T06:45:08.629Z,5.67
2018-01-02T06:47:36.204Z,5.67
2018-01-02T06:50:03.755Z,5.67
2018-01-02T06:52:31.264Z,5.71
2018-01-02T06:54:58.760Z,5.69
2018-01-02T06:57:26.248Z,5.70
2018-01-02T06:59:53.746Z,5.74
2018-01-02T07:02:21.274Z,5.71
2018-01-02T07:04:48.793Z,5.72
2018-01-02T07:07:16.295Z,5.72
2018-01-02T07:09:43.815Z,5.77
2018-01-02T07:12:11.308Z,5.73
2018-01-02T07:14:38.803Z,5.76
2018-01-02T07:17:06.303Z,5.74
2018-01-02T07:19:33.792Z,5.76
2018-01-02T07:22:01.291Z,5.76
2018-01-02T07:24:28.784Z,5.78
2018-01-02T07:26:56.304Z,5.76
2018-01-02T07:29:23.834Z,5.77
2018-01-02T07:31:51.359Z,5.78
2018-01-02T07:34:18.872Z,5.78
2018-01-02T07:36:46.385Z,5.78
2018-01-02T07:39:13.895Z,5.80
2018-01-02T07:41:41.415Z,5.77
2018-01-02T07:44:08.922Z,5.77
2018-01-02T07:46:37.607Z,5.82
2018-01-02T07:49:05.110Z,5.81
2018-01-02T07:51:32.627Z,5.86
2018-01-02T07:54:00.210Z,5.81
2018-01-02T07:56:27.789Z,5.84
2018-01-02T07:58:55.307Z,5.80
2018-01-02T08:01:22.809Z,5.83
2018-01-02T08:03:50.296Z,5.83
2018-01-02T08:06:17.806Z,5.83
2018-01-02T08:08:45.327Z,5.86
2018-01-02T08:11:12.898Z,5.85
2018-01-02T08:13:40.410Z,5.85
2018-01-02T08:16:07.931Z,5.88
2018-01-02T08:18:35.457Z,5.90
2018-01-02T08:21:02.944Z,5.81
2018-01-02T08:23:30.435Z,5.82
2018-01-02T08:25:57.963Z,5.78
2018-01-02T08:28:25.473Z,5.82
2018-01-02T08:30:52.979Z,5.74
2018-01-02T08:33:20.495Z,5.75
2018-01-02T08:35:48.007Z,5.70
2018-01-02T08:38:15.504Z,5.73
2018-01-02T08:40:43.015Z,5.76
2018-01-02T08:43:10.600Z,5.77
2018-01-02T08:45:38.184Z,5.77
2018-01-02T08:48:05.707Z,5.74
2018-01-02T08:50:33.282Z,5.84
2018-01-02T08:53:00.793Z,5.85
2018-01-02T08:55:28.343Z,5.87
2018-01-02T08:57:55.846Z,5.91
2018-01-02T09:00:23.533Z,5.87
2018-01-02T09:02:51.063Z,5.82
2018-01-02T09:05:18.812Z,5.87
2018-01-02T09:07:46.353Z,5.82
2018-01-02T09:10:13.840Z,5.85
2018-01-02T09:12:47.999Z,5.83
2018-01-02T09:15:15.525Z,5.88
2018-01-02T09:17:43.037Z,5.87
2018-01-02T09:20:10.574Z,5.95
2018-01-02T09:22:38.138Z,6.03
2018-01-02T09:25:05.664Z,6.04
2018-01-02T09:27:33.165Z,6.03
2018-01-02T09:30:00.710Z,6.03
2018-01-02T09:32:28.222Z,6.07
2018-01-02T09:34:55.742Z,6.15
2018-01-02T09:37:23.258Z,6.26
2018-01-02T09:39:50.759Z,6.24
2018-01-02T09:42:18.394Z,6.23
2018-01-02T09:44:45.894Z,6.20
2018-01-02T09:47:13.389Z,6.22
2018-01-02T09:49:40.910Z,6.29
2018-01-02T09:52:08.468Z,6.34
2018-01-02T09:54:36.216Z,6.40
2018-01-02T09:57:03.728Z,6.41
2018-01-02T09:59:31.244Z,6.43
2018-01-02T10:01:58.732Z,6.43
2018-01-02T10:04:26.335Z,6.53
2018-01-02T10:06:53.851Z,6.58
2018-01-02T10:09:21.370Z,6.64
2018-01-02T10:11:49.039Z,6.64
2018-01-02T10:14:16.655Z,6.64
2018-01-02T10:16:44.207Z,6.58
2018-01-02T10:19:11.746Z,6.58
2018-01-02T10:21:39.261Z,6.58
2018-01-02T10:24:06.794Z,6.62
2018-01-02T10:26:34.402Z,6.64
2018-01-02T10:29:01.927Z,6.61
2018-01-02T10:31:29.469Z,6.69
2018-01-02T10:33:56.995Z,6.66
2018-01-02T10:36:24.500Z,6.64
2018-01-02T10:38:52.019Z,6.65
2018-01-02T10:41:19.516Z,6.54
2018-01-02T10:43:47.066Z,6.61
2018-01-02T10:46:14.567Z,6.59
2018-01-02T10:48:42.062Z,6.60
2018-01-02T10:51:09.646Z,6.63
2018-01-02T10:53:37.262Z,6.69
2018-01-02T10:56:04.773Z,6.59
2018-01-02T10:58:32.298Z,6.68
2018-01-02T11:01:01.909Z,6.67
2018-01-02T11:03:29.451Z,6.67
2018-01-02T11:05:56.955Z,6.70
2018-01-02T11:08:24.477Z,6.74
2018-01-02T11:10:57.631Z,6.71
2018-01-02T11:13:30.978Z,6.68
2018-01-02T11:15:58.540Z,6.74
2018-01-02T11:18:26.680Z,6.82
2018-01-02T11:20:54.228Z,6.86
2018-01-02T11:23:21.728Z,6.86
2018-01-02T11:25:49.204Z,6.88
2018-01-02T11:28:16.733Z,6.89
2018-01-02T11:30:44.258Z,6.87
2018-01-02T11:33:11.772Z,6.91
2018-01-02T11:35:39.305Z,6.93
2018-01-02T11:38:06.826Z,6.94
2018-01-02T11:40:34.340Z,7.04
2018-01-02T11:43:01.836Z,6.98
2018-01-02T11:45:29.330Z,7.01
2018-01-02T11:47:56.846Z,7.04
2018-01-02T11:50:24.355Z,7.01
2018-01-02T11:52:51.845Z,7.01
2018-01-02T11:55:20.517Z,7.05
2018-01-02T11:57:48.035Z,7.10
2018-01-02T12:00:15.532Z,7.14
2018-01-02T12:02:43.252Z,7.15
2018-01-02T12:05:10.748Z,7.06
2018-01-02T12:07:38.241Z,7.07
2018-01-02T12:10:05.731Z,7.02
2018-01-02T12:12:33.651Z,7.05
2018-01-02T12:15:01.575Z,7.08
2018-01-02T12:17:29.134Z,7.10
2018-01-02T12:19:56.844Z,7.07
2018-01-02T12:22:24.404Z,7.17
2018-01-02T12:24:51.913Z,7.30
2018-01-02T12:27:19.459Z,7.40
2018-01-02T12:29:47.705Z,7.39
2018-01-02T12:32:15.315Z,7.46
2018-01-02T12:34:42.857Z,7.54
2018-01-02T12:37:10.369Z,7.51
2018-01-02T12:39:37.870Z,7.55
2018-01-02T12:42:05.378Z,7.59
2018-01-02T12:44:32.954Z,7.61
2018-01-02T12:47:00.485Z,7.53
2018-01-02T12:49:28.124Z,7.53
2018-01-02T12:51:55.614Z,7.44
2018-01-02T12:54:23.150Z,7.35
2018-01-02T12:56:51.401Z,7.39
2018-01-02T12:59:18.888Z,7.34
2018-01-02T13:01:46.385Z,7.29
2018-01-02T13:04:13.921Z,7.35
2018-01-02T13:06:41.437Z,7.25
2018-01-02T13:09:08.955Z,7.27
2018-01-02T13:11:36.459Z,7.22
2018-01-02T13:14:03.958Z,7.25
2018-01-02T13:16:31.605Z,7.21
2018-01-02T13:18:59.116Z,7.20
2018-01-02T13:21:26.652Z,7.18
2018-01-02T13:23:54.132Z,7.23
2018-01-02T13:26:21.622Z,7.20
2018-01-02T13:28:49.100Z,7.20
2018-01-02T13:31:16.577Z,7.23
2018-01-02T13:33:44.064Z,7.11
2018-01-02T13:36:11.568Z,7.13
2018-01-02T13:38:39.047Z,7.12
2018-01-02T13:41:06.532Z,7.09
2018-01-02T13:43:34.044Z,7.11
2018-01-02T13:46:01.524Z,7.04
2018-01-02T13:48:29.031Z,7.05
2018-01-02T13:50:56.522Z,6.97
2018-01-02T13:53:24.004Z,7.02
2018-01-02T13:55:51.500Z,7.00
2018-01-02T13:58:19.015Z,7.12
2018-01-02T14:00:46.541Z,7.11
2018-01-02T14:03:14.037Z,7.04
2018-01-02T14:05:41.549Z,7.09
2018-01-02T14:08:09.924Z,7.16
2018-01-02T14:10:37.436Z,7.06
2018-01-02T14:13:04.946Z,7.09
2018-01-02T14:15:32.432Z,7.10
2018-01-02T14:17:59.989Z,7.04
2018-01-02T14:20:27.791Z,7.05
2018-01-02T14:22:58.111Z,7.09
2018-01-02T14:25:25.646Z,6.98
2018-01-02T14:27:54.067Z,6.99
2018-01-02T14:30:21.599Z,6.90
2018-01-02T14:32:49.132Z,6.95
2018-01-02T14:35:16.621Z,6.88
2018-01-02T14:37:44.132Z,6.85
2018-01-02T14:40:11.856Z,6.79
2018-01-02T14:42:39.385Z,6.68
2018-01-02T14:45:06.893Z,6.66
2018-01-02T14:47:34.406Z,5.90
2018-01-02T14:50:01.914Z,5.51
2018-01-02T14:52:29.471Z,5.51
2018-01-02T14:54:56.981Z,5.61
2018-01-02T14:57:24.496Z,5.69
2018-01-02T14:59:52.033Z,5.49
2018-01-02T15:02:19.521Z,5.56
2018-01-02T15:04:47.119Z,5.64
2018-01-02T15:07:14.686Z,5.65
2018-01-02T15:09:42.185Z,5.70
2018-01-02T15:12:09.694Z,5.68
2018-01-02T15:14:37.382Z,5.68
2018-01-02T15:17:04.876Z,5.66
2018-01-02T15:19:32.364Z,5.64
2018-01-02T15:21:59.892Z,5.71
2018-01-02T15:24:28.171Z,5.68
2018-01-02T15:26:55.669Z,5.69
2018-01-02T15:29:23.199Z,5.72
2018-01-02T15:31:50.680Z,5.69
2018-01-02T15:34:18.198Z,5.73
2018-01-02T15:36:45.707Z,5.68
2018-01-02T15:39:13.563Z,5.70
2018-01-02T15:41:41.064Z,5.71
2018-01-02T15:44:08.572Z,5.72
2018-01-02T15:46:36.096Z,5.72
2018-01-02T15:49:03.861Z,5.75
2018-01-02T15:51:31.416Z,5.74
2018-01-02T15:53:58.939Z,5.76
2018-01-02T15:56:26.631Z,5.70
2018-01-02T15:58:54.201Z,5.72
2018-01-02T16:01:21.708Z,5.74
2018-01-02T16:03:49.717Z,5.73
2018-01-02T16:06:17.227Z,5.70
2018-01-02T16:08:44.736Z,5.70
2018-01-02T16:11:12.260Z,5.71
2018-01-02T16:13:39.774Z,5.73
2018-01-02T16:16:07.327Z,5.77
2018-01-02T16:18:34.834Z,5.76
2018-01-02T16:21:02.337Z,5.74
2018-01-02T16:23:29.832Z,5.75
2018-01-02T16:25:57.375Z,5.76
2018-01-02T16:28:24.886Z,5.76
2018-01-02T16:30:52.388Z,5.66
2018-01-02T16:33:22.824Z,5.74
2018-01-02T16:35:50.345Z,5.72
2018-01-02T16:38:17.832Z,5.70
2018-01-02T16:40:45.345Z,5.63
2018-01-02T16:43:12.842Z,5.65
2018-01-02T16:45:40.324Z,5.68
2018-01-02T16:48:07.886Z,5.62
2018-01-02T16:50:35.379Z,5.61
2018-01-02T16:53:02.890Z,5.54
2018-01-02T16:55:30.375Z,5.58
2018-01-02T16:57:57.884Z,5.57
2018-01-02T17:00:25.390Z,5.60
2018-01-02T17:02:52.884Z,5.59
2018-01-02T17:05:20.390Z,5.58
2018-01-02T17:07:47.899Z,5.49
2018-01-02T17:10:15.384Z,5.57
2018-01-02T17:12:42.930Z,5.58
2018-01-02T17:15:11.325Z,5.53
2018-01-02T17:17:51.325Z,5.57
2018-01-02T17:20:20.044Z,5.52
2018-01-02T17:22:53.900Z,5.52
2018-01-02T17:25:21.862Z,5.53
2018-01-02T17:27:49.362Z,5.55
2018-01-02T17:30:16.868Z,5.51
2018-01-02T17:32:44.368Z,5.52
2018-01-02T17:35:11.861Z,5.53
2018-01-02T17:37:39.365Z,5.51
2018-01-02T17:40:06.875Z,5.51
2018-01-02T17:42:34.448Z,5.51
2018-01-02T17:45:01.967Z,5.50
2018-01-02T17:47:29.487Z,5.45
2018-01-02T17:49:57.013Z,5.45
2018-01-02T17:52:24.511Z,5.45
2018-01-02T17:54:52.002Z,5.45
2018-01-02T17:57:19.511Z,5.46
2018-01-02T17:59:47.382Z,5.47
2018-01-02T18:02:14.881Z,5.46
2018-01-02T18:04:42.386Z,5.47
2018-01-02T18:07:09.908Z,5.47
2018-01-02T18:09:37.965Z,5.46
2018-01-02T18:12:05.471Z,5.48
2018-01-02T18:14:32.984Z,5.50
2018-01-02T18:17:03.860Z,5.50
2018-01-02T18:19:31.618Z,5.43
2018-01-02T18:21:59.263Z,5.49
2018-01-02T18:24:26.946Z,5.48
2018-01-02T18:26:54.653Z,5.47
2018-01-02T18:29:22.294Z,5.36
2018-01-02T18:31:49.877Z,5.32
2018-01-02T18:34:17.563Z,5.24
2018-01-02T18:36:45.364Z,5.25
2018-01-02T18:39:13.177Z,5.19
2018-01-02T18:41:40.696Z,5.23
2018-01-02T18:44:08.212Z,5.24
2018-01-02T18:46:35.719Z,5.16
2018-01-02T18:49:03.254Z,5.20
2018-01-02T18:51:30.774Z,5.21
2018-01-02T18:53:58.284Z,5.23
2018-01-02T18:56:25.788Z,5.19
2018-01-02T18:58:54.420Z,5.23
2018-01-02T19:01:21.940Z,5.26
2018-01-02T19:03:49.439Z,5.25
2018-01-02T19:06:17.109Z,5.22
2018-01-02T19:08:44.619Z,5.11
2018-01-02T19:11:12.126Z,5.10
2018-01-02T19:13:39.667Z,5.18
2018-01-02T19:16:08.583Z,5.06
2018-01-02T19:18:37.092Z,5.12
2018-01-02T19:21:04.627Z,5.05
2018-01-02T19:23:32.171Z,5.06
2018-01-02T19:25:59.698Z,4.99
2018-01-02T19:28:27.200Z,5.06
2018-01-02T19:30:54.696Z,5.02
2018-01-02T19:33:22.184Z,5.06
2018-01-02T19:35:49.723Z,5.04
2018-01-02T19:38:17.210Z,5.09
2018-01-02T19:40:44.707Z,5.02
2018-01-02T19:43:12.202Z,5.06
2018-01-02T19:45:39.721Z,5.04
2018-01-02T19:48:07.271Z,5.04
2018-01-02T19:50:34.768Z,4.99
2018-01-02T19:53:02.287Z,4.96
2018-01-02T19:55:29.788Z,5.04
2018-01-02T19:57:57.292Z,5.03
2018-01-02T20:00:24.785Z,5.01
2018-01-02T20:02:52.283Z,4.96
2018-01-02T20:05:19.815Z,5.02
2018-01-02T20:07:47.336Z,4.99
2018-01-02T20:10:14.879Z,4.97
2018-01-02T20:12:42.577Z,4.96
2018-01-02T20:15:11.069Z,5.00
2018-01-02T20:17:38.558Z,5.00
2018-01-02T20:20:06.064Z,4.94
2018-01-02T20:22:33.579Z,4.90
2018-01-02T20:25:01.118Z,4.94
2018-01-02T20:27:28.597Z,4.92
2018-01-02T20:29:56.115Z,4.94
2018-01-02T20:32:23.599Z,4.85
2018-01-02T20:34:51.077Z,4.88
2018-01-02T20:37:18.563Z,4.88
2018-01-02T20:39:46.617Z,4.92
2018-01-02T20:42:14.416Z,4.97
2018-01-02T20:44:41.918Z,5.00
2018-01-02T20:47:10.189Z,5.03
2018-01-02T20:49:39.163Z,5.00
2018-01-02T20:52:07.254Z,4.99
2018-01-02T20:54:35.324Z,5.00
2018-01-02T20:57:03.284Z,5.05
2018-01-02T20:59:36.548Z,5.09
2018-01-02T21:02:06.166Z,5.11
2018-01-02T21:04:33.830Z,5.16
2018-01-02T21:07:01.333Z,5.11
2018-01-02T21:09:28.839Z,5.13
2018-01-02T21:11:57.049Z,5.18
2018-01-02T21:14:24.559Z,5.11
2018-01-02T21:16:52.068Z,5.19
2018-01-02T21:19:19.581Z,5.20
2018-01-02T21:21:47.131Z,5.20
2018-01-02T21:24:14.635Z,5.21
2018-01-02T21:26:42.140Z,5.21
2018-01-02T21:29:09.652Z,5.28
2018-01-02T21:31:37.154Z,5.31
2018-01-02T21:34:04.654Z,5.27
2018-01-02T21:36:32.174Z,5.32
2018-01-02T21:38:59.695Z,5.27
2018-01-02T21:41:27.188Z,5.32
2018-01-02T21:43:54.696Z,5.45
2018-01-02T21:46:22.247Z,5.43
2018-01-02T21:48:49.756Z,5.46
2018-01-02T21:51:17.240Z,5.56
2018-01-02T21:53:44.747Z,5.56
2018-01-02T21:56:12.245Z,5.50
2018-01-02T21:58:39.751Z,5.45
2018-01-02T22:01:07.233Z,5.52
2018-01-02T22:03:34.740Z,5.59
2018-01-02T22:06:02.269Z,5.56
2018-01-02T22:08:29.776Z,5.63
2018-01-02T22:10:57.296Z,5.61
2018-01-02T22:13:24.846Z,5.65
2018-01-02T22:15:52.346Z,5.57
2018-01-02T22:18:19.882Z,5.66
2018-01-02T22:20:47.372Z,5.73
2018-01-02T22:23:14.943Z,5.81
2018-01-02T22:25:42.479Z,5.76
2018-01-02T22:28:09.962Z,5.80
2018-01-02T22:30:37.464Z,5.87
2018-01-02T22:33:04.945Z,5.89
2018-01-02T22:35:32.428Z,5.89
2018-01-02T22:38:00.198Z,5.88
2018-01-02T22:40:27.711Z,5.95
2018-01-02T22:42:55.207Z,5.99
2018-01-02T22:45:22.697Z,6.02
2018-01-02T22:47:50.222Z,6.06
2018-01-02T22:50:18.278Z,6.03
2018-01-02T22:52:45.765Z,6.10
2018-01-02T22:55:13.262Z,6.16
2018-01-02T22:57:40.766Z,6.28
2018-01-02T23:00:08.942Z,6.25
2018-01-02T23:02:36.428Z,6.18
2018-01-02T23:05:03.937Z,6.17
2018-01-02T23:07:31.430Z,6.23
2018-01-02T23:09:59.796Z,6.23
2018-01-02T23:12:27.348Z,6.29
2018-01-02T23:14:55.078Z,6.29
2018-01-02T23:17:22.588Z,6.25
2018-01-02T23:19:50.141Z,6.20
2018-01-02T23:22:17.625Z,6.29
2018-01-02T23:24:45.116Z,6.20
2018-01-02T23:27:12.623Z,6.30
2018-01-02T23:29:40.132Z,6.31
2018-01-02T23:32:07.642Z,6.35
2018-01-02T23:34:35.162Z,6.33
2018-01-02T23:37:02.666Z,6.32
2018-01-02T23:39:30.160Z,6.28
2018-01-02T23:41:57.757Z,6.27
2018-01-02T23:44:25.228Z,6.31
2018-01-02T23:46:52.732Z,6.32
2018-01-02T23:49:20.335Z,6.40
2018-01-02T23:51:47.813Z,6.33
2018-01-02T23:54:15.299Z,6.38
2018-01-02T23:56:42.802Z,6.39
2018-01-02T23:59:10.306Z,6.44
